sensor_id;sensor_type;location;lat;lon;timestamp;pressure;altitude;pressure_sealevel;temperature;humidity
79690;BME280;69156;55.932;-3.238;2023-05-02T00:01:10;101813.77;;;8.38;63.39
79690;BME280;69156;55.932;-3.238;2023-05-02T00:03:35;101813.03;;;8.30;63.06
79690;BME280;69156;55.932;-3.238;2023-05-02T00:06:00;101815.00;;;8.39;63.09
79690;BME280;69156;55.932;-3.238;2023-05-02T00:08:26;101814.98;;;8.45;62.77
79690;BME280;69156;55.932;-3.238;2023-05-02T00:10:51;101819.59;;;8.37;62.67
79690;BME280;69156;55.932;-3.238;2023-05-02T00:13:17;101823.21;;;8.46;63.17
79690;BME280;69156;55.932;-3.238;2023-05-02T00:15:42;101820.06;;;8.43;63.00
79690;BME280;69156;55.932;-3.238;2023-05-02T00:18:09;101824.19;;;8.51;63.02
79690;BME280;69156;55.932;-3.238;2023-05-02T00:20:34;101827.88;;;8.42;62.74
79690;BME280;69156;55.932;-3.238;2023-05-02T00:23:00;101826.36;;;8.48;62.77
79690;BME280;69156;55.932;-3.238;2023-05-02T00:25:26;101826.77;;;8.56;62.77
79690;BME280;69156;55.932;-3.238;2023-05-02T00:27:52;101832.10;;;8.52;62.44
79690;BME280;69156;55.932;-3.238;2023-05-02T00:30:17;101837.30;;;8.48;62.77
79690;BME280;69156;55.932;-3.238;2023-05-02T00:32:42;101838.09;;;8.46;62.59
79690;BME280;69156;55.932;-3.238;2023-05-02T00:35:09;101837.61;;;8.46;62.75
79690;BME280;69156;55.932;-3.238;2023-05-02T00:37:34;101838.67;;;8.49;62.69
79690;BME280;69156;55.932;-3.238;2023-05-02T00:39:59;101838.20;;;8.52;62.58
79690;BME280;69156;55.932;-3.238;2023-05-02T00:42:25;101837.80;;;8.53;62.76
79690;BME280;69156;55.932;-3.238;2023-05-02T00:44:51;101835.92;;;8.44;62.60
79690;BME280;69156;55.932;-3.238;2023-05-02T00:47:16;101835.76;;;8.58;62.16
79690;BME280;69156;55.932;-3.238;2023-05-02T00:49:41;101836.47;;;8.49;62.00
79690;BME280;69156;55.932;-3.238;2023-05-02T00:52:08;101831.30;;;8.37;62.04
79690;BME280;69156;55.932;-3.238;2023-05-02T00:54:36;101833.90;;;8.43;62.09
79690;BME280;69156;55.932;-3.238;2023-05-02T00:57:00;101832.48;;;8.47;62.04
79690;BME280;69156;55.932;-3.238;2023-05-02T00:59:27;101826.29;;;8.46;62.07
79690;BME280;69156;55.932;-3.238;2023-05-02T01:02:03;101825.18;;;8.46;62.49
79690;BME280;69156;55.932;-3.238;2023-05-02T01:04:26;101828.46;;;8.25;62.77
79690;BME280;69156;55.932;-3.238;2023-05-02T01:06:51;101832.69;;;8.30;63.01
79690;BME280;69156;55.932;-3.238;2023-05-02T01:09:31;101832.45;;;8.35;62.95
79690;BME280;69156;55.932;-3.238;2023-05-02T01:11:40;101831.69;;;8.35;63.03
79690;BME280;69156;55.932;-3.238;2023-05-02T01:14:00;101833.14;;;8.29;62.98
79690;BME280;69156;55.932;-3.238;2023-05-02T01:16:24;101832.68;;;8.21;63.25
79690;BME280;69156;55.932;-3.238;2023-05-02T01:18:50;101836.72;;;8.23;63.27
79690;BME280;69156;55.932;-3.238;2023-05-02T01:21:15;101831.22;;;8.14;63.41
79690;BME280;69156;55.932;-3.238;2023-05-02T01:23:50;101832.03;;;8.21;63.52
79690;BME280;69156;55.932;-3.238;2023-05-02T01:26:15;101839.84;;;8.34;63.39
79690;BME280;69156;55.932;-3.238;2023-05-02T01:28:42;101842.38;;;8.14;63.34
79690;BME280;69156;55.932;-3.238;2023-05-02T01:30:56;101843.71;;;8.22;63.14
79690;BME280;69156;55.932;-3.238;2023-05-02T01:33:23;101842.46;;;8.25;63.15
79690;BME280;69156;55.932;-3.238;2023-05-02T01:35:50;101842.32;;;8.14;63.34
79690;BME280;69156;55.932;-3.238;2023-05-02T01:38:13;101840.27;;;8.25;63.06
79690;BME280;69156;55.932;-3.238;2023-05-02T01:40:37;101829.95;;;8.20;63.03
79690;BME280;69156;55.932;-3.238;2023-05-02T01:43:04;101829.85;;;8.30;63.46
79690;BME280;69156;55.932;-3.238;2023-05-02T01:45:28;101836.13;;;8.36;63.21
79690;BME280;69156;55.932;-3.238;2023-05-02T01:47:54;101835.55;;;8.17;63.11
79690;BME280;69156;55.932;-3.238;2023-05-02T01:50:22;101837.80;;;8.25;62.89
79690;BME280;69156;55.932;-3.238;2023-05-02T01:52:46;101837.56;;;8.22;62.79
79690;BME280;69156;55.932;-3.238;2023-05-02T01:55:13;101833.91;;;8.24;62.84
79690;BME280;69156;55.932;-3.238;2023-05-02T01:57:38;101833.66;;;8.17;62.35
79690;BME280;69156;55.932;-3.238;2023-05-02T02:00:02;101830.90;;;8.24;62.39
79690;BME280;69156;55.932;-3.238;2023-05-02T02:02:28;101831.13;;;8.27;62.46
79690;BME280;69156;55.932;-3.238;2023-05-02T02:04:53;101834.80;;;8.18;62.34
79690;BME280;69156;55.932;-3.238;2023-05-02T02:07:18;101837.43;;;8.19;61.89
79690;BME280;69156;55.932;-3.238;2023-05-02T02:09:43;101835.84;;;8.28;61.94
79690;BME280;69156;55.932;-3.238;2023-05-02T02:12:11;101837.92;;;8.24;62.06
79690;BME280;69156;55.932;-3.238;2023-05-02T02:14:37;101838.81;;;8.39;62.01
79690;BME280;69156;55.932;-3.238;2023-05-02T02:17:01;101835.56;;;8.24;62.23
79690;BME280;69156;55.932;-3.238;2023-05-02T02:19:24;101832.29;;;8.17;61.99
79690;BME280;69156;55.932;-3.238;2023-05-02T02:21:50;101836.93;;;8.20;62.45
79690;BME280;69156;55.932;-3.238;2023-05-02T02:24:17;101832.86;;;8.10;62.36
79690;BME280;69156;55.932;-3.238;2023-05-02T02:26:42;101833.57;;;8.11;62.32
79690;BME280;69156;55.932;-3.238;2023-05-02T02:29:07;101834.67;;;8.06;62.59
79690;BME280;69156;55.932;-3.238;2023-05-02T02:31:33;101832.67;;;8.12;62.46
79690;BME280;69156;55.932;-3.238;2023-05-02T02:33:58;101833.84;;;8.15;62.32
79690;BME280;69156;55.932;-3.238;2023-05-02T02:36:30;101830.37;;;8.11;62.66
79690;BME280;69156;55.932;-3.238;2023-05-02T02:38:54;101833.48;;;8.19;62.17
79690;BME280;69156;55.932;-3.238;2023-05-02T02:41:21;101832.38;;;8.19;61.96
79690;BME280;69156;55.932;-3.238;2023-05-02T02:43:50;101827.34;;;8.17;61.57
79690;BME280;69156;55.932;-3.238;2023-05-02T02:46:14;101825.42;;;8.08;61.77
79690;BME280;69156;55.932;-3.238;2023-05-02T02:48:34;101826.43;;;8.18;61.85
79690;BME280;69156;55.932;-3.238;2023-05-02T02:51:06;101827.45;;;8.08;61.14
79690;BME280;69156;55.932;-3.238;2023-05-02T02:53:36;101824.87;;;8.12;61.49
79690;BME280;69156;55.932;-3.238;2023-05-02T02:55:54;101826.17;;;8.04;61.63
79690;BME280;69156;55.932;-3.238;2023-05-02T02:58:27;101826.90;;;8.27;61.15
79690;BME280;69156;55.932;-3.238;2023-05-02T03:00:41;101829.93;;;8.07;61.00
79690;BME280;69156;55.932;-3.238;2023-05-02T03:03:06;101832.89;;;8.08;61.06
79690;BME280;69156;55.932;-3.238;2023-05-02T03:05:32;101836.22;;;8.09;60.80
79690;BME280;69156;55.932;-3.238;2023-05-02T03:07:58;101836.84;;;8.24;60.85
79690;BME280;69156;55.932;-3.238;2023-05-02T03:10:23;101838.34;;;8.11;60.51
79690;BME280;69156;55.932;-3.238;2023-05-02T03:12:49;101837.56;;;8.17;60.27
79690;BME280;69156;55.932;-3.238;2023-05-02T03:15:31;101836.56;;;8.14;60.22
79690;BME280;69156;55.932;-3.238;2023-05-02T03:17:40;101832.40;;;8.12;60.39
79690;BME280;69156;55.932;-3.238;2023-05-02T03:20:06;101828.43;;;8.13;60.53
79690;BME280;69156;55.932;-3.238;2023-05-02T03:22:32;101829.91;;;8.19;59.85
79690;BME280;69156;55.932;-3.238;2023-05-02T03:24:57;101829.25;;;8.19;60.37
79690;BME280;69156;55.932;-3.238;2023-05-02T03:27:23;101832.48;;;8.10;60.16
79690;BME280;69156;55.932;-3.238;2023-05-02T03:29:48;101831.30;;;8.07;60.10
79690;BME280;69156;55.932;-3.238;2023-05-02T03:32:13;101827.87;;;8.06;60.27
79690;BME280;69156;55.932;-3.238;2023-05-02T03:34:39;101828.91;;;8.05;60.14
79690;BME280;69156;55.932;-3.238;2023-05-02T03:37:04;101829.19;;;8.05;60.28
79690;BME280;69156;55.932;-3.238;2023-05-02T03:39:30;101829.16;;;8.08;60.15
79690;BME280;69156;55.932;-3.238;2023-05-02T03:41:55;101828.34;;;8.07;60.14
79690;BME280;69156;55.932;-3.238;2023-05-02T03:44:21;101826.28;;;8.05;60.39
79690;BME280;69156;55.932;-3.238;2023-05-02T03:46:46;101832.41;;;8.01;60.73
79690;BME280;69156;55.932;-3.238;2023-05-02T03:49:11;101835.25;;;8.08;60.63
79690;BME280;69156;55.932;-3.238;2023-05-02T03:51:37;101837.66;;;8.03;60.52
79690;BME280;69156;55.932;-3.238;2023-05-02T03:54:02;101838.31;;;8.04;60.72
79690;BME280;69156;55.932;-3.238;2023-05-02T03:56:27;101839.91;;;8.03;60.74
79690;BME280;69156;55.932;-3.238;2023-05-02T03:58:53;101836.26;;;8.02;60.70
79690;BME280;69156;55.932;-3.238;2023-05-02T04:01:19;101834.50;;;8.06;60.85
79690;BME280;69156;55.932;-3.238;2023-05-02T04:03:44;101831.79;;;7.97;60.72
79690;BME280;69156;55.932;-3.238;2023-05-02T04:06:10;101831.79;;;8.09;60.72
79690;BME280;69156;55.932;-3.238;2023-05-02T04:08:36;101827.65;;;7.96;60.83
79690;BME280;69156;55.932;-3.238;2023-05-02T04:11:02;101829.42;;;8.05;60.87
79690;BME280;69156;55.932;-3.238;2023-05-02T04:13:27;101833.71;;;7.93;60.99
79690;BME280;69156;55.932;-3.238;2023-05-02T04:15:52;101833.29;;;7.91;60.89
79690;BME280;69156;55.932;-3.238;2023-05-02T04:18:18;101829.52;;;8.10;61.26
79690;BME280;69156;55.932;-3.238;2023-05-02T04:20:44;101824.42;;;7.94;61.15
79690;BME280;69156;55.932;-3.238;2023-05-02T04:23:09;101821.20;;;7.99;60.85
79690;BME280;69156;55.932;-3.238;2023-05-02T04:25:35;101823.27;;;7.93;60.96
79690;BME280;69156;55.932;-3.238;2023-05-02T04:28:00;101823.52;;;7.90;61.11
79690;BME280;69156;55.932;-3.238;2023-05-02T04:30:26;101823.59;;;7.90;61.26
79690;BME280;69156;55.932;-3.238;2023-05-02T04:32:51;101831.61;;;7.89;61.22
79690;BME280;69156;55.932;-3.238;2023-05-02T04:35:16;101835.04;;;7.91;61.12
79690;BME280;69156;55.932;-3.238;2023-05-02T04:37:42;101834.64;;;7.93;61.11
79690;BME280;69156;55.932;-3.238;2023-05-02T04:40:09;101834.99;;;8.02;61.25
79690;BME280;69156;55.932;-3.238;2023-05-02T04:42:34;101838.05;;;7.93;61.52
79690;BME280;69156;55.932;-3.238;2023-05-02T04:44:59;101834.07;;;8.02;60.99
79690;BME280;69156;55.932;-3.238;2023-05-02T04:47:24;101832.61;;;8.00;60.88
79690;BME280;69156;55.932;-3.238;2023-05-02T04:49:49;101833.39;;;8.07;60.60
79690;BME280;69156;55.932;-3.238;2023-05-02T04:52:15;101834.60;;;7.97;60.78
79690;BME280;69156;55.932;-3.238;2023-05-02T04:54:40;101835.92;;;7.91;60.97
79690;BME280;69156;55.932;-3.238;2023-05-02T04:57:06;101842.87;;;7.93;60.55
79690;BME280;69156;55.932;-3.238;2023-05-02T04:59:31;101845.51;;;7.93;60.20
79690;BME280;69156;55.932;-3.238;2023-05-02T05:01:56;101851.58;;;7.96;60.37
79690;BME280;69156;55.932;-3.238;2023-05-02T05:04:22;101852.44;;;7.97;60.16
79690;BME280;69156;55.932;-3.238;2023-05-02T05:06:47;101852.54;;;8.14;60.20
79690;BME280;69156;55.932;-3.238;2023-05-02T05:09:12;101851.64;;;8.05;60.29
79690;BME280;69156;55.932;-3.238;2023-05-02T05:11:37;101852.66;;;8.07;59.99
79690;BME280;69156;55.932;-3.238;2023-05-02T05:14:03;101856.19;;;8.11;59.78
79690;BME280;69156;55.932;-3.238;2023-05-02T05:16:28;101859.17;;;8.20;59.46
79690;BME280;69156;55.932;-3.238;2023-05-02T05:18:54;101861.17;;;8.18;59.65
79690;BME280;69156;55.932;-3.238;2023-05-02T05:21:19;101864.68;;;8.28;59.43
79690;BME280;69156;55.932;-3.238;2023-05-02T05:23:44;101867.31;;;8.29;59.16
79690;BME280;69156;55.932;-3.238;2023-05-02T05:26:11;101868.26;;;8.32;59.37
79690;BME280;69156;55.932;-3.238;2023-05-02T05:28:35;101870.15;;;8.35;59.34
79690;BME280;69156;55.932;-3.238;2023-05-02T05:31:04;101873.46;;;8.38;59.14
79690;BME280;69156;55.932;-3.238;2023-05-02T05:33:25;101875.49;;;8.39;58.87
79690;BME280;69156;55.932;-3.238;2023-05-02T05:35:50;101882.60;;;8.42;58.97
79690;BME280;69156;55.932;-3.238;2023-05-02T05:38:15;101879.28;;;8.42;58.69
79690;BME280;69156;55.932;-3.238;2023-05-02T05:40:41;101879.79;;;8.42;58.68
79690;BME280;69156;55.932;-3.238;2023-05-02T05:43:07;101882.84;;;8.40;58.63
79690;BME280;69156;55.932;-3.238;2023-05-02T05:45:32;101887.21;;;8.46;58.75
79690;BME280;69156;55.932;-3.238;2023-05-02T05:47:57;101890.33;;;8.53;58.58
79690;BME280;69156;55.932;-3.238;2023-05-02T05:50:23;101890.56;;;8.55;58.59
79690;BME280;69156;55.932;-3.238;2023-05-02T05:52:48;101889.34;;;8.56;58.71
79690;BME280;69156;55.932;-3.238;2023-05-02T05:55:13;101889.31;;;8.64;58.42
79690;BME280;69156;55.932;-3.238;2023-05-02T05:57:39;101891.64;;;8.63;58.72
79690;BME280;69156;55.932;-3.238;2023-05-02T06:00:06;101890.18;;;8.65;58.65
79690;BME280;69156;55.932;-3.238;2023-05-02T06:02:30;101891.36;;;8.72;58.66
79690;BME280;69156;55.932;-3.238;2023-05-02T06:04:56;101895.51;;;8.78;58.56
79690;BME280;69156;55.932;-3.238;2023-05-02T06:07:21;101895.44;;;8.76;58.80
79690;BME280;69156;55.932;-3.238;2023-05-02T06:09:47;101894.73;;;8.84;58.80
79690;BME280;69156;55.932;-3.238;2023-05-02T06:12:13;101889.00;;;8.93;58.57
79690;BME280;69156;55.932;-3.238;2023-05-02T06:14:39;101892.40;;;9.08;58.63
79690;BME280;69156;55.932;-3.238;2023-05-02T06:17:04;101895.47;;;8.86;58.73
79690;BME280;69156;55.932;-3.238;2023-05-02T06:19:29;101894.51;;;9.09;58.96
79690;BME280;69156;55.932;-3.238;2023-05-02T06:21:55;101894.30;;;9.07;58.79
79690;BME280;69156;55.932;-3.238;2023-05-02T06:24:20;101895.77;;;9.05;58.66
79690;BME280;69156;55.932;-3.238;2023-05-02T06:26:46;101903.33;;;9.08;58.57
79690;BME280;69156;55.932;-3.238;2023-05-02T06:29:12;101906.57;;;9.17;58.69
79690;BME280;69156;55.932;-3.238;2023-05-02T06:31:38;101911.51;;;8.96;58.62
79690;BME280;69156;55.932;-3.238;2023-05-02T06:34:03;101914.27;;;8.91;58.97
79690;BME280;69156;55.932;-3.238;2023-05-02T06:36:29;101914.79;;;9.01;58.77
79690;BME280;69156;55.932;-3.238;2023-05-02T06:38:54;101917.02;;;9.03;58.60
79690;BME280;69156;55.932;-3.238;2023-05-02T06:41:19;101914.20;;;9.16;58.56
79690;BME280;69156;55.932;-3.238;2023-05-02T06:43:45;101917.34;;;8.99;58.55
79690;BME280;69156;55.932;-3.238;2023-05-02T06:46:10;101917.27;;;9.29;58.51
79690;BME280;69156;55.932;-3.238;2023-05-02T06:48:36;101919.26;;;9.24;58.35
79690;BME280;69156;55.932;-3.238;2023-05-02T06:51:02;101919.33;;;9.22;57.22
79690;BME280;69156;55.932;-3.238;2023-05-02T06:53:28;101919.51;;;9.19;57.25
79690;BME280;69156;55.932;-3.238;2023-05-02T06:55:53;101920.84;;;9.22;57.38
79690;BME280;69156;55.932;-3.238;2023-05-02T06:58:18;101922.52;;;9.31;57.29
79690;BME280;69156;55.932;-3.238;2023-05-02T07:00:43;101921.50;;;9.33;57.28
79690;BME280;69156;55.932;-3.238;2023-05-02T07:03:09;101921.26;;;9.37;56.80
79690;BME280;69156;55.932;-3.238;2023-05-02T07:05:34;101917.31;;;9.50;56.54
79690;BME280;69156;55.932;-3.238;2023-05-02T07:08:00;101918.68;;;9.52;56.68
79690;BME280;69156;55.932;-3.238;2023-05-02T07:10:26;101918.71;;;9.54;56.97
79690;BME280;69156;55.932;-3.238;2023-05-02T07:12:51;101916.92;;;9.41;57.24
79690;BME280;69156;55.932;-3.238;2023-05-02T07:15:17;101920.00;;;9.56;57.20
79690;BME280;69156;55.932;-3.238;2023-05-02T07:17:43;101922.17;;;9.62;56.82
79690;BME280;69156;55.932;-3.238;2023-05-02T07:20:10;101922.94;;;9.58;56.90
79690;BME280;69156;55.932;-3.238;2023-05-02T07:22:33;101925.43;;;9.54;57.25
79690;BME280;69156;55.932;-3.238;2023-05-02T07:25:00;101924.93;;;9.54;57.19
79690;BME280;69156;55.932;-3.238;2023-05-02T07:27:24;101924.58;;;9.53;57.47
79690;BME280;69156;55.932;-3.238;2023-05-02T07:29:49;101926.18;;;9.40;57.84
79690;BME280;69156;55.932;-3.238;2023-05-02T07:32:15;101929.49;;;9.42;57.72
79690;BME280;69156;55.932;-3.238;2023-05-02T07:34:40;101934.04;;;9.48;57.98
79690;BME280;69156;55.932;-3.238;2023-05-02T07:37:05;101935.17;;;9.61;57.70
79690;BME280;69156;55.932;-3.238;2023-05-02T07:39:32;101934.21;;;9.59;57.86
79690;BME280;69156;55.932;-3.238;2023-05-02T07:41:56;101933.77;;;9.65;57.71
79690;BME280;69156;55.932;-3.238;2023-05-02T07:44:21;101930.82;;;9.56;58.00
79690;BME280;69156;55.932;-3.238;2023-05-02T07:46:46;101928.62;;;9.68;58.03
79690;BME280;69156;55.932;-3.238;2023-05-02T07:49:12;101932.58;;;9.72;57.93
79690;BME280;69156;55.932;-3.238;2023-05-02T07:51:38;101932.94;;;9.85;58.09
79690;BME280;69156;55.932;-3.238;2023-05-02T07:54:14;101935.01;;;9.97;58.03
79690;BME280;69156;55.932;-3.238;2023-05-02T07:56:29;101932.44;;;9.78;57.50
79690;BME280;69156;55.932;-3.238;2023-05-02T07:58:55;101936.05;;;10.01;57.56
79690;BME280;69156;55.932;-3.238;2023-05-02T08:01:20;101938.30;;;9.94;57.54
79690;BME280;69156;55.932;-3.238;2023-05-02T08:03:45;101938.26;;;9.86;58.06
79690;BME280;69156;55.932;-3.238;2023-05-02T08:06:10;101940.98;;;9.96;57.96
79690;BME280;69156;55.932;-3.238;2023-05-02T08:08:36;101944.29;;;9.99;58.04
79690;BME280;69156;55.932;-3.238;2023-05-02T08:11:01;101945.39;;;9.98;57.77
79690;BME280;69156;55.932;-3.238;2023-05-02T08:13:27;101943.57;;;9.87;57.69
79690;BME280;69156;55.932;-3.238;2023-05-02T08:15:53;101943.79;;;9.92;57.82
79690;BME280;69156;55.932;-3.238;2023-05-02T08:18:19;101944.34;;;9.92;58.12
79690;BME280;69156;55.932;-3.238;2023-05-02T08:20:44;101945.09;;;9.97;57.81
79690;BME280;69156;55.932;-3.238;2023-05-02T08:23:10;101944.75;;;9.86;57.73
79690;BME280;69156;55.932;-3.238;2023-05-02T08:25:35;101945.43;;;9.96;57.95
79690;BME280;69156;55.932;-3.238;2023-05-02T08:28:00;101945.01;;;9.95;57.87
79690;BME280;69156;55.932;-3.238;2023-05-02T08:30:26;101945.53;;;10.07;57.83
79690;BME280;69156;55.932;-3.238;2023-05-02T08:32:52;101948.40;;;9.97;57.74
79690;BME280;69156;55.932;-3.238;2023-05-02T08:35:18;101946.12;;;10.04;58.19
79690;BME280;69156;55.932;-3.238;2023-05-02T08:37:43;101947.87;;;10.07;57.97
79690;BME280;69156;55.932;-3.238;2023-05-02T08:40:11;101950.98;;;10.16;57.63
79690;BME280;69156;55.932;-3.238;2023-05-02T08:42:35;101951.02;;;10.23;57.42
79690;BME280;69156;55.932;-3.238;2023-05-02T08:45:00;101947.66;;;10.20;57.29
79690;BME280;69156;55.932;-3.238;2023-05-02T08:47:26;101949.34;;;10.41;57.36
79690;BME280;69156;55.932;-3.238;2023-05-02T08:49:52;101953.32;;;10.31;57.40
79690;BME280;69156;55.932;-3.238;2023-05-02T08:52:17;101956.34;;;10.25;57.29
79690;BME280;69156;55.932;-3.238;2023-05-02T08:54:41;101956.38;;;10.14;57.47
79690;BME280;69156;55.932;-3.238;2023-05-02T08:57:07;101956.83;;;10.29;57.57
79690;BME280;69156;55.932;-3.238;2023-05-02T08:59:31;101956.66;;;10.26;57.46
79690;BME280;69156;55.932;-3.238;2023-05-02T09:02:04;101956.69;;;10.24;57.32
79690;BME280;69156;55.932;-3.238;2023-05-02T09:04:23;101958.99;;;10.26;57.62
79690;BME280;69156;55.932;-3.238;2023-05-02T09:06:47;101961.00;;;10.23;57.55
79690;BME280;69156;55.932;-3.238;2023-05-02T09:09:12;101958.58;;;10.31;57.74
79690;BME280;69156;55.932;-3.238;2023-05-02T09:11:38;101961.30;;;10.26;57.74
79690;BME280;69156;55.932;-3.238;2023-05-02T09:14:13;101958.81;;;10.31;57.53
79690;BME280;69156;55.932;-3.238;2023-05-02T09:16:29;101960.07;;;10.39;57.62
79690;BME280;69156;55.932;-3.238;2023-05-02T09:18:57;101960.74;;;10.42;57.65
79690;BME280;69156;55.932;-3.238;2023-05-02T09:21:22;101961.16;;;10.49;57.50
79690;BME280;69156;55.932;-3.238;2023-05-02T09:23:49;101959.04;;;10.55;57.56
79690;BME280;69156;55.932;-3.238;2023-05-02T09:26:15;101960.50;;;10.74;56.91
79690;BME280;69156;55.932;-3.238;2023-05-02T09:28:40;101956.27;;;10.62;56.81
79690;BME280;69156;55.932;-3.238;2023-05-02T09:31:06;101952.96;;;10.43;57.05
79690;BME280;69156;55.932;-3.238;2023-05-02T09:33:29;101958.83;;;10.48;57.12
79690;BME280;69156;55.932;-3.238;2023-05-02T09:35:54;101960.14;;;10.67;56.98
79690;BME280;69156;55.932;-3.238;2023-05-02T09:38:19;101954.77;;;10.62;56.80
79690;BME280;69156;55.932;-3.238;2023-05-02T09:40:52;101954.56;;;10.74;57.31
79690;BME280;69156;55.932;-3.238;2023-05-02T09:43:14;101959.87;;;11.02;56.45
79690;BME280;69156;55.932;-3.238;2023-05-02T09:45:36;101955.49;;;11.04;56.04
79690;BME280;69156;55.932;-3.238;2023-05-02T09:48:02;101955.95;;;10.99;55.85
79690;BME280;69156;55.932;-3.238;2023-05-02T09:50:32;101959.68;;;11.15;56.08
79690;BME280;69156;55.932;-3.238;2023-05-02T09:53:00;101960.13;;;11.21;55.51
79690;BME280;69156;55.932;-3.238;2023-05-02T09:55:20;101956.44;;;11.24;55.34
79690;BME280;69156;55.932;-3.238;2023-05-02T09:57:44;101962.71;;;11.42;55.32
79690;BME280;69156;55.932;-3.238;2023-05-02T10:00:10;101962.96;;;11.45;54.82
79690;BME280;69156;55.932;-3.238;2023-05-02T10:02:35;101967.23;;;11.41;54.96
79690;BME280;69156;55.932;-3.238;2023-05-02T10:05:00;101975.19;;;11.57;54.56
79690;BME280;69156;55.932;-3.238;2023-05-02T10:07:25;101972.21;;;11.52;54.57
79690;BME280;69156;55.932;-3.238;2023-05-02T10:09:53;101971.65;;;11.47;54.72
79690;BME280;69156;55.932;-3.238;2023-05-02T10:12:15;101974.36;;;11.48;54.55
79690;BME280;69156;55.932;-3.238;2023-05-02T10:14:41;101975.61;;;11.62;54.60
79690;BME280;69156;55.932;-3.238;2023-05-02T10:17:11;101975.79;;;11.65;54.16
79690;BME280;69156;55.932;-3.238;2023-05-02T10:19:44;101976.14;;;11.77;54.48
79690;BME280;69156;55.932;-3.238;2023-05-02T10:21:58;101976.12;;;11.82;53.85
79690;BME280;69156;55.932;-3.238;2023-05-02T10:24:23;101974.47;;;12.00;54.28
79690;BME280;69156;55.932;-3.238;2023-05-02T10:26:49;101980.21;;;12.11;53.09
79690;BME280;69156;55.932;-3.238;2023-05-02T10:29:13;101990.19;;;12.47;52.17
79690;BME280;69156;55.932;-3.238;2023-05-02T10:31:40;101990.20;;;12.53;52.28
79690;BME280;69156;55.932;-3.238;2023-05-02T10:34:05;101988.25;;;12.34;52.77
79690;BME280;69156;55.932;-3.238;2023-05-02T10:36:30;101986.01;;;12.26;52.68
79690;BME280;69156;55.932;-3.238;2023-05-02T10:38:55;101982.11;;;12.43;52.61
79690;BME280;69156;55.932;-3.238;2023-05-02T10:41:22;101979.11;;;12.22;52.48
79690;BME280;69156;55.932;-3.238;2023-05-02T10:43:47;101976.18;;;12.26;52.44
79690;BME280;69156;55.932;-3.238;2023-05-02T10:46:31;101970.06;;;12.30;52.86
79690;BME280;69156;55.932;-3.238;2023-05-02T10:48:37;101969.56;;;12.41;52.22
79690;BME280;69156;55.932;-3.238;2023-05-02T10:51:02;101965.83;;;12.68;52.15
79690;BME280;69156;55.932;-3.238;2023-05-02T10:53:30;101967.65;;;12.51;52.36
79690;BME280;69156;55.932;-3.238;2023-05-02T10:56:26;101974.21;;;12.61;52.01
79690;BME280;69156;55.932;-3.238;2023-05-02T10:58:28;101968.85;;;12.61;52.22
79690;BME280;69156;55.932;-3.238;2023-05-02T11:00:47;101971.37;;;12.47;52.59
79690;BME280;69156;55.932;-3.238;2023-05-02T11:03:53;101974.61;;;12.46;52.78
79690;BME280;69156;55.932;-3.238;2023-05-02T11:06:04;101972.14;;;12.57;52.56
79690;BME280;69156;55.932;-3.238;2023-05-02T11:08:39;101971.92;;;12.60;52.57
79690;BME280;69156;55.932;-3.238;2023-05-02T11:10:32;101977.44;;;12.71;52.80
79690;BME280;69156;55.932;-3.238;2023-05-02T11:12:58;101974.62;;;12.58;52.89
79690;BME280;69156;55.932;-3.238;2023-05-02T11:15:55;101978.27;;;12.64;52.30
79690;BME280;69156;55.932;-3.238;2023-05-02T11:18:06;101981.02;;;12.64;52.45
79690;BME280;69156;55.932;-3.238;2023-05-02T11:20:19;101984.60;;;12.62;52.33
79690;BME280;69156;55.932;-3.238;2023-05-02T11:22:39;101988.62;;;12.51;52.60
79690;BME280;69156;55.932;-3.238;2023-05-02T11:25:05;101992.36;;;12.48;52.90
79690;BME280;69156;55.932;-3.238;2023-05-02T11:27:38;101996.06;;;12.44;53.14
79690;BME280;69156;55.932;-3.238;2023-05-02T11:29:57;101992.62;;;12.47;52.92
79690;BME280;69156;55.932;-3.238;2023-05-02T11:32:21;101992.69;;;12.40;53.38
79690;BME280;69156;55.932;-3.238;2023-05-02T11:34:47;101993.11;;;12.60;53.06
79690;BME280;69156;55.932;-3.238;2023-05-02T11:37:13;101994.47;;;12.71;52.92
79690;BME280;69156;55.932;-3.238;2023-05-02T11:39:38;101991.11;;;12.73;52.55
79690;BME280;69156;55.932;-3.238;2023-05-02T11:42:03;101987.64;;;12.80;52.73
79690;BME280;69156;55.932;-3.238;2023-05-02T11:44:29;101986.64;;;12.88;52.55
79690;BME280;69156;55.932;-3.238;2023-05-02T11:46:54;101981.81;;;13.06;52.31
79690;BME280;69156;55.932;-3.238;2023-05-02T11:49:19;101983.03;;;13.30;51.32
79690;BME280;69156;55.932;-3.238;2023-05-02T11:51:44;101980.96;;;13.35;51.50
79690;BME280;69156;55.932;-3.238;2023-05-02T11:54:17;101983.90;;;13.20;51.64
79690;BME280;69156;55.932;-3.238;2023-05-02T11:56:36;101984.58;;;13.63;51.39
79690;BME280;69156;55.932;-3.238;2023-05-02T11:59:02;101978.73;;;13.51;51.01
79690;BME280;69156;55.932;-3.238;2023-05-02T12:01:27;101974.52;;;13.46;51.50
79690;BME280;69156;55.932;-3.238;2023-05-02T12:04:01;101970.74;;;13.38;51.65
79690;BME280;69156;55.932;-3.238;2023-05-02T12:06:18;101967.05;;;13.70;51.52
79690;BME280;69156;55.932;-3.238;2023-05-02T12:08:44;101960.82;;;13.71;50.60
79690;BME280;69156;55.932;-3.238;2023-05-02T12:11:12;101963.73;;;13.77;51.01
79690;BME280;69156;55.932;-3.238;2023-05-02T12:13:34;101964.83;;;13.74;51.20
79690;BME280;69156;55.932;-3.238;2023-05-02T12:16:00;101964.65;;;13.64;50.82
79690;BME280;69156;55.932;-3.238;2023-05-02T12:18:26;101969.43;;;13.34;51.70
79690;BME280;69156;55.932;-3.238;2023-05-02T12:20:52;101969.90;;;13.23;51.39
79690;BME280;69156;55.932;-3.238;2023-05-02T12:23:16;101974.38;;;13.36;51.76
79690;BME280;69156;55.932;-3.238;2023-05-02T12:25:42;101978.12;;;13.41;51.60
79690;BME280;69156;55.932;-3.238;2023-05-02T12:28:07;101978.14;;;13.28;51.68
79690;BME280;69156;55.932;-3.238;2023-05-02T12:30:34;101978.84;;;13.19;52.15
79690;BME280;69156;55.932;-3.238;2023-05-02T12:33:00;101975.84;;;13.21;52.35
79690;BME280;69156;55.932;-3.238;2023-05-02T12:35:25;101972.05;;;13.28;51.76
79690;BME280;69156;55.932;-3.238;2023-05-02T12:37:51;101975.88;;;13.20;51.73